createdAt,value
2023-05-01T00:01:43.565Z,19.70
2023-05-01T00:04:10.470Z,19.60
2023-05-01T00:06:37.729Z,19.60
2023-05-01T00:09:04.429Z,19.70
2023-05-01T00:11:31.392Z,19.70
2023-05-01T00:13:58.002Z,19.70
2023-05-01T00:16:24.685Z,19.70
2023-05-01T00:18:51.313Z,19.60
2023-05-01T00:21:17.892Z,19.60
2023-05-01T00:23:44.554Z,19.70
2023-05-01T00:26:11.270Z,19.70
2023-05-01T00:28:37.862Z,19.60
2023-05-01T00:31:04.619Z,19.70
2023-05-01T00:33:31.317Z,19.70
2023-05-01T00:35:59.171Z,19.70
2023-05-01T00:38:25.806Z,19.60
2023-05-01T00:40:52.419Z,19.60
2023-05-01T00:43:19.027Z,19.70
2023-05-01T00:45:48.501Z,19.60
2023-05-01T00:48:15.789Z,19.60
2023-05-01T00:50:44.511Z,19.60
2023-05-01T00:53:12.366Z,19.60
2023-05-01T00:55:41.921Z,19.60
2023-05-01T00:58:09.913Z,19.60
2023-05-01T01:00:36.962Z,19.70
2023-05-01T01:03:04.733Z,19.60
2023-05-01T01:05:35.603Z,19.60
2023-05-01T01:08:19.774Z,19.70
2023-05-01T01:11:14.162Z,19.60
2023-05-01T01:13:49.226Z,19.60
2023-05-01T01:16:31.966Z,19.70
2023-05-01T01:19:25.741Z,19.60
2023-05-01T01:22:03.587Z,19.60
2023-05-01T01:24:59.067Z,19.70
2023-05-01T01:27:58.358Z,19.60
2023-05-01T01:30:25.012Z,19.60
2023-05-01T01:33:17.991Z,19.60
2023-05-01T01:35:57.371Z,19.60
2023-05-01T01:38:32.434Z,19.60
2023-05-01T01:41:09.893Z,19.60
2023-05-01T01:43:50.931Z,19.60
2023-05-01T01:46:20.424Z,19.60
2023-05-01T01:48:49.528Z,19.60
2023-05-01T01:51:19.216Z,19.60
2023-05-01T01:53:49.785Z,19.60
2023-05-01T01:56:18.610Z,19.60
2023-05-01T01:58:46.283Z,19.60
2023-05-01T02:01:15.041Z,19.50
2023-05-01T02:03:44.028Z,19.60
2023-05-01T02:06:12.911Z,19.50
2023-05-01T02:08:42.406Z,19.50
2023-05-01T02:11:11.175Z,19.50
2023-05-01T02:13:39.614Z,19.60
2023-05-01T02:16:07.315Z,19.60
2023-05-01T02:18:36.207Z,19.50
2023-05-01T02:21:04.221Z,19.50
2023-05-01T02:23:33.394Z,19.50
2023-05-01T02:26:02.925Z,19.50
2023-05-01T02:28:30.472Z,19.50
2023-05-01T02:30:57.428Z,19.60
2023-05-01T02:33:27.336Z,19.50
2023-05-01T02:35:53.950Z,19.60
2023-05-01T02:38:21.278Z,19.50
2023-05-01T02:40:53.570Z,19.60
2023-05-01T02:43:22.028Z,19.50
2023-05-01T02:45:51.376Z,19.50
2023-05-01T02:48:22.784Z,19.50
2023-05-01T02:50:49.955Z,19.60
2023-05-01T02:53:17.100Z,19.50
2023-05-01T02:55:44.119Z,19.60
2023-05-01T02:58:18.465Z,19.50
2023-05-01T03:00:45.984Z,19.60
2023-05-01T03:03:12.796Z,19.50
2023-05-01T03:05:40.990Z,19.50
2023-05-01T03:08:07.855Z,19.50
2023-05-01T03:10:34.461Z,19.50
2023-05-01T03:13:01.372Z,19.50
2023-05-01T03:15:28.042Z,19.40
2023-05-01T03:17:54.654Z,19.40
2023-05-01T03:20:21.468Z,19.40
2023-05-01T03:22:48.141Z,19.40
2023-05-01T03:25:15.323Z,19.40
2023-05-01T03:27:42.402Z,19.40
2023-05-01T03:30:10.093Z,19.40
2023-05-01T03:32:37.079Z,19.40
2023-05-01T03:35:04.134Z,19.40
2023-05-01T03:37:30.994Z,19.40
2023-05-01T03:39:57.897Z,19.40
2023-05-01T03:42:24.735Z,19.40
2023-05-01T03:44:51.485Z,19.40
2023-05-01T03:47:19.217Z,19.40
2023-05-01T03:49:45.912Z,19.40
2023-05-01T03:52:13.322Z,19.40
2023-05-01T03:54:39.976Z,19.40
2023-05-01T03:57:07.159Z,19.40
2023-05-01T03:59:33.939Z,19.30
2023-05-01T04:02:00.600Z,19.30
2023-05-01T04:04:28.673Z,19.40
2023-05-01T04:06:55.444Z,19.40
2023-05-01T04:09:22.161Z,19.40
2023-05-01T04:11:48.758Z,19.40
2023-05-01T04:14:15.429Z,19.40
2023-05-01T04:16:42.225Z,19.30
2023-05-01T04:19:09.365Z,19.40
2023-05-01T04:21:36.020Z,19.40
2023-05-01T04:24:02.750Z,19.40
2023-05-01T04:26:29.383Z,19.40
2023-05-01T04:28:56.060Z,19.40
2023-05-01T04:31:22.692Z,19.30
2023-05-01T04:33:49.332Z,19.30
2023-05-01T04:36:15.931Z,19.40
2023-05-01T04:38:43.018Z,19.30
2023-05-01T04:41:09.849Z,19.30
2023-05-01T04:43:36.480Z,19.30
2023-05-01T04:46:06.152Z,19.30
2023-05-01T04:48:32.822Z,19.30
2023-05-01T04:50:59.498Z,19.40
2023-05-01T04:53:26.100Z,19.30
2023-05-01T04:55:52.711Z,19.30
2023-05-01T04:58:19.277Z,19.40
2023-05-01T05:00:46.002Z,19.40
2023-05-01T05:03:12.752Z,19.40
2023-05-01T05:05:39.520Z,19.40
2023-05-01T05:08:06.471Z,18.80
2023-05-01T05:10:33.105Z,19.40
2023-05-01T05:12:59.794Z,19.40
2023-05-01T05:15:26.396Z,19.40
2023-05-01T05:17:55.112Z,19.40
2023-05-01T05:20:23.071Z,19.40
2023-05-01T05:22:49.690Z,19.40
2023-05-01T05:25:16.318Z,19.40
2023-05-01T05:27:42.918Z,19.40
2023-05-01T05:30:10.283Z,19.40
2023-05-01T05:32:37.647Z,19.40
2023-05-01T05:35:05.483Z,19.40
2023-05-01T05:37:32.301Z,19.40
2023-05-01T05:39:58.940Z,19.50
2023-05-01T05:42:25.608Z,19.50
2023-05-01T05:44:52.957Z,19.40
2023-05-01T05:47:19.558Z,19.50
2023-05-01T05:49:46.313Z,19.50
2023-05-01T05:52:12.914Z,19.50
2023-05-01T05:54:39.560Z,19.50
2023-05-01T05:57:06.192Z,19.50
2023-05-01T05:59:32.771Z,19.50
2023-05-01T06:01:59.388Z,19.50
2023-05-01T06:04:26.078Z,19.50
2023-05-01T06:06:53.040Z,19.50
2023-05-01T06:09:19.875Z,19.60
2023-05-01T06:11:46.536Z,19.50
2023-05-01T06:14:13.253Z,19.60
2023-05-01T06:16:39.995Z,19.60
2023-05-01T06:19:07.736Z,19.60
2023-05-01T06:21:34.366Z,19.60
2023-05-01T06:24:01.006Z,19.50
2023-05-01T06:26:28.229Z,20.10
2023-05-01T06:28:55.129Z,19.50
2023-05-01T06:31:21.875Z,19.60
2023-05-01T06:33:48.554Z,19.60
2023-05-01T06:36:15.154Z,19.60
2023-05-01T06:38:48.071Z,19.60
2023-05-01T06:41:16.097Z,19.30
2023-05-01T06:43:42.762Z,19.60
2023-05-01T06:46:09.485Z,19.60
2023-05-01T06:48:36.105Z,19.60
2023-05-01T06:51:02.730Z,19.60
2023-05-01T06:53:29.407Z,19.60
2023-05-01T06:55:56.078Z,19.60
2023-05-01T06:58:24.400Z,19.60
2023-05-01T07:00:52.431Z,19.60
2023-05-01T07:03:19.244Z,19.60
2023-05-01T07:05:45.958Z,19.60
2023-05-01T07:08:12.835Z,19.60
2023-05-01T07:10:41.310Z,19.60
2023-05-01T07:13:09.307Z,19.60
2023-05-01T07:15:35.959Z,19.60
2023-05-01T07:18:05.614Z,19.60
2023-05-01T07:20:32.967Z,19.60
2023-05-01T07:22:59.751Z,19.60
2023-05-01T07:25:26.438Z,19.60
2023-05-01T07:27:54.130Z,19.60
2023-05-01T07:30:20.953Z,19.60
2023-05-01T07:32:49.982Z,19.60
2023-05-01T07:35:16.780Z,19.60
2023-05-01T07:37:43.434Z,19.70
2023-05-01T07:40:10.716Z,19.70
2023-05-01T07:42:37.362Z,19.60
2023-05-01T07:45:04.365Z,19.60
2023-05-01T07:47:31.003Z,19.70
2023-05-01T07:49:58.017Z,19.70
2023-05-01T07:52:25.079Z,19.70
2023-05-01T07:54:51.799Z,19.70
2023-05-01T07:57:18.578Z,19.70
2023-05-01T07:59:45.238Z,19.70
2023-05-01T08:02:13.733Z,19.70
2023-05-01T08:04:41.604Z,19.70
2023-05-01T08:07:08.437Z,19.70
2023-05-01T08:09:35.064Z,19.70
2023-05-01T08:12:03.694Z,19.70
2023-05-01T08:14:30.752Z,19.70
2023-05-01T08:16:57.527Z,19.70
2023-05-01T08:19:24.381Z,19.70
2023-05-01T08:21:51.160Z,19.70
2023-05-01T08:24:17.794Z,19.70
2023-05-01T08:26:44.731Z,19.70
2023-05-01T08:29:11.605Z,19.70
2023-05-01T08:31:39.270Z,19.70
2023-05-01T08:34:08.416Z,19.70
2023-05-01T08:36:35.153Z,19.70
2023-05-01T08:39:01.907Z,19.70
2023-05-01T08:41:29.070Z,19.70
2023-05-01T08:43:58.481Z,19.70
2023-05-01T08:46:48.616Z,19.80
2023-05-01T08:49:17.214Z,19.70
2023-05-01T08:51:50.088Z,19.70
2023-05-01T08:54:19.731Z,19.70
2023-05-01T08:56:53.348Z,19.80
2023-05-01T08:59:20.814Z,19.80
2023-05-01T09:01:48.260Z,19.80
2023-05-01T09:04:16.283Z,19.70
2023-05-01T09:06:44.930Z,19.70
2023-05-01T09:09:11.838Z,19.80
2023-05-01T09:11:38.886Z,19.70
2023-05-01T09:14:05.648Z,19.70
2023-05-01T09:16:32.533Z,19.70
2023-05-01T09:18:59.445Z,19.70
2023-05-01T09:21:28.207Z,19.80
2023-05-01T09:23:54.852Z,19.70
2023-05-01T09:26:21.874Z,19.70
2023-05-01T09:28:48.863Z,19.70
2023-05-01T09:31:28.452Z,19.80
2023-05-01T09:34:00.466Z,19.70
2023-05-01T09:36:29.742Z,19.70
2023-05-01T09:39:00.361Z,19.80
2023-05-01T09:41:28.925Z,19.80
2023-05-01T09:43:57.826Z,19.80
2023-05-01T09:46:25.768Z,19.70
2023-05-01T09:48:58.640Z,19.80
2023-05-01T09:51:26.864Z,19.70
2023-05-01T09:53:55.919Z,19.80
2023-05-01T09:56:23.741Z,19.70
2023-05-01T09:58:52.145Z,19.80
2023-05-01T10:01:19.525Z,19.70
2023-05-01T10:03:53.626Z,19.70
2023-05-01T10:06:28.402Z,19.70
2023-05-01T10:08:55.115Z,19.80
2023-05-01T10:11:22.874Z,19.70
2023-05-01T10:14:09.892Z,19.70
2023-05-01T10:16:38.459Z,19.70
2023-05-01T10:19:05.576Z,19.80
2023-05-01T10:21:36.409Z,19.80
2023-05-01T10:24:08.231Z,19.70
2023-05-01T10:26:36.158Z,19.80
2023-05-01T10:29:04.083Z,19.70
2023-05-01T10:31:32.734Z,19.70
2023-05-01T10:34:01.785Z,19.70
2023-05-01T10:36:36.085Z,19.70
2023-05-01T10:39:03.733Z,19.70
2023-05-01T10:41:57.986Z,19.70
2023-05-01T10:44:28.257Z,19.70
2023-05-01T10:46:55.704Z,19.70
2023-05-01T10:49:22.827Z,19.70
2023-05-01T10:52:03.757Z,19.70
2023-05-01T10:54:31.467Z,19.70
2023-05-01T10:57:00.002Z,19.70
2023-05-01T10:59:27.931Z,19.70
2023-05-01T11:01:55.082Z,19.70
2023-05-01T11:04:21.786Z,19.70
2023-05-01T11:07:10.669Z,19.60
2023-05-01T11:09:42.487Z,19.70
2023-05-01T11:12:35.850Z,19.70
2023-05-01T11:15:05.269Z,19.60
2023-05-01T11:17:41.253Z,19.60
2023-05-01T11:20:24.272Z,19.60
2023-05-01T11:22:56.304Z,19.60
2023-05-01T11:25:27.110Z,19.60
2023-05-01T11:27:56.100Z,19.60
2023-05-01T11:30:23.048Z,19.60
2023-05-01T11:32:50.937Z,19.60
2023-05-01T11:35:18.939Z,19.60
2023-05-01T11:37:46.075Z,19.60
2023-05-01T11:40:22.671Z,19.60
2023-05-01T11:42:50.349Z,19.60
2023-05-01T11:45:18.506Z,19.60
2023-05-01T11:47:45.232Z,19.60
2023-05-01T11:50:12.623Z,19.60
2023-05-01T11:52:59.565Z,19.60
2023-05-01T11:55:32.048Z,19.60
2023-05-01T11:57:59.262Z,19.60
2023-05-01T12:00:43.203Z,19.60
2023-05-01T12:03:12.170Z,19.60
2023-05-01T12:05:42.524Z,19.60
2023-05-01T12:08:11.168Z,19.60
2023-05-01T12:10:39.547Z,19.60
2023-05-01T12:13:08.728Z,19.60
2023-05-01T12:15:37.306Z,19.60
2023-05-01T12:18:05.685Z,19.60
2023-05-01T12:20:39.398Z,19.60
2023-05-01T12:23:08.253Z,19.60
2023-05-01T12:25:35.506Z,19.60
2023-05-01T12:28:04.357Z,19.60
2023-05-01T12:30:31.636Z,19.60
2023-05-01T12:32:58.763Z,19.60
2023-05-01T12:35:31.679Z,19.60
2023-05-01T12:37:59.514Z,19.60
2023-05-01T12:40:26.934Z,19.60
2023-05-01T12:43:00.150Z,19.60
2023-05-01T12:45:26.859Z,19.60
2023-05-01T12:47:53.586Z,19.60
2023-05-01T12:50:20.791Z,19.60
2023-05-01T12:52:48.661Z,19.60
2023-05-01T12:55:15.615Z,19.60
2023-05-01T12:57:52.986Z,19.60
2023-05-01T13:00:20.566Z,19.60
2023-05-01T13:02:47.755Z,19.60
2023-05-01T13:05:14.356Z,19.60
2023-05-01T13:07:48.186Z,19.60
2023-05-01T13:10:18.795Z,19.60
2023-05-01T13:12:46.149Z,19.60
2023-05-01T13:15:21.041Z,19.60
2023-05-01T13:17:48.100Z,19.60
2023-05-01T13:20:15.516Z,19.60
2023-05-01T13:22:42.544Z,19.60
2023-05-01T13:25:22.453Z,19.60
2023-05-01T13:27:53.238Z,19.60
2023-05-01T13:30:28.463Z,19.60
2023-05-01T13:32:55.179Z,19.60
2023-05-01T13:35:24.460Z,19.60
2023-05-01T13:37:52.549Z,19.60
2023-05-01T13:40:20.130Z,19.60
2023-05-01T13:42:48.158Z,19.60
2023-05-01T13:45:20.240Z,19.60
2023-05-01T13:47:48.713Z,19.60
2023-05-01T13:50:17.692Z,19.60
2023-05-01T13:52:45.538Z,19.60
2023-05-01T13:55:13.561Z,19.60
2023-05-01T13:57:44.450Z,19.60
2023-05-01T14:00:17.426Z,19.60
2023-05-01T14:02:48.297Z,19.60
2023-05-01T14:05:16.160Z,19.60
2023-05-01T14:07:54.225Z,19.60
2023-05-01T14:10:22.895Z,19.60
2023-05-01T14:12:49.645Z,19.60
2023-05-01T14:15:17.595Z,19.60
2023-05-01T14:17:44.667Z,19.50
2023-05-01T14:20:12.075Z,19.60
2023-05-01T14:22:43.581Z,19.60
2023-05-01T14:25:24.080Z,19.60
2023-05-01T14:27:55.159Z,19.50
2023-05-01T14:30:42.122Z,19.60
2023-05-01T14:33:11.307Z,19.60
2023-05-01T14:35:48.449Z,19.60
2023-05-01T14:38:16.566Z,19.50
2023-05-01T14:40:44.209Z,19.60
2023-05-01T14:43:16.540Z,19.60
2023-05-01T14:45:46.050Z,19.50
2023-05-01T14:48:36.862Z,19.60
2023-05-01T14:51:06.316Z,19.60
2023-05-01T14:53:33.294Z,19.50
2023-05-01T14:56:00.040Z,19.50
2023-05-01T14:58:26.697Z,19.60
2023-05-01T15:00:53.282Z,19.50
2023-05-01T15:03:19.995Z,19.60
2023-05-01T15:05:46.787Z,19.50
2023-05-01T15:08:13.399Z,19.50
2023-05-01T15:10:40.023Z,19.60
2023-05-01T15:13:06.687Z,19.60
2023-05-01T15:15:33.366Z,19.50
2023-05-01T15:18:00.060Z,19.50
2023-05-01T15:20:26.744Z,19.50
2023-05-01T15:22:53.588Z,19.50
2023-05-01T15:25:20.235Z,19.50
2023-05-01T15:27:47.162Z,19.50
2023-05-01T15:30:15.072Z,19.60
2023-05-01T15:32:41.818Z,19.50
2023-05-01T15:35:09.074Z,19.50
2023-05-01T15:37:35.938Z,19.50
2023-05-01T15:40:05.145Z,19.50
2023-05-01T15:42:31.765Z,19.50
2023-05-01T15:44:58.794Z,19.50
2023-05-01T15:47:25.902Z,19.50
2023-05-01T15:49:53.638Z,19.50
2023-05-01T15:52:20.322Z,19.50
2023-05-01T15:54:48.199Z,19.50
2023-05-01T15:57:17.708Z,19.50
2023-05-01T15:59:44.981Z,19.50
2023-05-01T16:02:11.804Z,19.50
2023-05-01T16:04:38.937Z,19.50
2023-05-01T16:07:06.145Z,19.50
2023-05-01T16:09:33.534Z,19.60
2023-05-01T16:12:02.910Z,19.40
2023-05-01T16:14:29.711Z,18.80
2023-05-01T16:16:56.377Z,18.50
2023-05-01T16:19:23.530Z,18.40
2023-05-01T16:21:50.218Z,18.30
2023-05-01T16:24:16.865Z,18.30
2023-05-01T16:26:44.182Z,18.30
2023-05-01T16:29:11.698Z,18.10
2023-05-01T16:31:40.711Z,18.00
2023-05-01T16:34:10.915Z,18.00
2023-05-01T16:36:42.498Z,18.00
2023-05-01T16:39:13.474Z,17.90
2023-05-01T16:41:44.723Z,17.90
2023-05-01T16:44:12.731Z,17.80
2023-05-01T16:46:44.593Z,18.30
2023-05-01T16:49:11.718Z,18.70
2023-05-01T16:51:41.091Z,19.00
2023-05-01T16:54:07.732Z,19.10
2023-05-01T16:56:34.329Z,19.20
2023-05-01T16:59:00.966Z,19.20
2023-05-01T17:01:27.583Z,19.20
2023-05-01T17:03:54.421Z,19.30
2023-05-01T17:06:21.402Z,19.30
2023-05-01T17:08:48.047Z,19.30
2023-05-01T17:11:15.454Z,19.30
2023-05-01T17:13:42.210Z,19.40
2023-05-01T17:16:08.831Z,19.30
2023-05-01T17:18:35.823Z,19.30
2023-05-01T17:21:02.461Z,19.10
2023-05-01T17:23:29.227Z,19.30
2023-05-01T17:25:56.442Z,19.30
2023-05-01T17:28:23.898Z,19.30
2023-05-01T17:30:50.654Z,19.40
2023-05-01T17:33:20.320Z,19.40
2023-05-01T17:35:46.936Z,19.30
2023-05-01T17:38:13.575Z,19.20
2023-05-01T17:40:40.210Z,19.40
2023-05-01T17:43:06.927Z,19.40
2023-05-01T17:45:33.598Z,19.40
2023-05-01T17:48:00.944Z,19.40
2023-05-01T17:50:27.915Z,19.40
2023-05-01T17:52:54.610Z,19.40
2023-05-01T17:55:21.241Z,19.40
2023-05-01T17:57:47.943Z,19.40
2023-05-01T18:00:16.078Z,19.40
2023-05-01T18:02:44.632Z,19.40
2023-05-01T18:05:11.958Z,19.40
2023-05-01T18:07:38.654Z,19.40
2023-05-01T18:10:05.784Z,19.40
2023-05-01T18:12:32.421Z,19.40
2023-05-01T18:14:59.050Z,19.40
2023-05-01T18:17:25.973Z,19.40
2023-05-01T18:19:52.565Z,19.40
2023-05-01T18:22:19.420Z,19.40
2023-05-01T18:24:46.174Z,19.30
2023-05-01T18:27:12.884Z,19.40
2023-05-01T18:29:39.499Z,19.40
2023-05-01T18:32:06.773Z,19.40
2023-05-01T18:34:33.446Z,19.30
2023-05-01T18:37:00.101Z,19.40
2023-05-01T18:39:26.698Z,19.40
2023-05-01T18:41:54.799Z,19.20
2023-05-01T18:44:21.644Z,19.40
2023-05-01T18:46:48.498Z,19.40
2023-05-01T18:49:15.150Z,19.40
2023-05-01T18:51:41.776Z,19.40
2023-05-01T18:54:09.821Z,19.40
2023-05-01T18:56:36.503Z,19.40
2023-05-01T18:59:03.095Z,19.50
2023-05-01T19:01:29.792Z,19.40
2023-05-01T19:03:59.235Z,19.40
2023-05-01T19:06:26.850Z,19.40
2023-05-01T19:08:53.599Z,19.30
2023-05-01T19:11:21.490Z,19.40
2023-05-01T19:13:48.655Z,19.30
2023-05-01T19:16:15.360Z,19.40
2023-05-01T19:18:41.988Z,19.40
2023-05-01T19:21:08.897Z,19.40
2023-05-01T19:23:37.310Z,19.40
2023-05-01T19:26:06.053Z,19.40
2023-05-01T19:28:32.677Z,19.40
2023-05-01T19:30:59.305Z,19.40
2023-05-01T19:33:25.937Z,19.40
2023-05-01T19:35:52.671Z,19.30
2023-05-01T19:38:19.275Z,19.40
2023-05-01T19:40:46.035Z,19.30
2023-05-01T19:43:15.796Z,19.30
2023-05-01T19:45:43.134Z,19.30
2023-05-01T19:48:10.112Z,19.30
2023-05-01T19:50:36.760Z,19.30
2023-05-01T19:53:05.142Z,19.30
2023-05-01T19:55:32.058Z,19.30
2023-05-01T19:57:58.846Z,19.30
2023-05-01T20:00:27.391Z,19.30
2023-05-01T20:02:54.178Z,19.30
2023-05-01T20:05:27.731Z,19.30
2023-05-01T20:07:55.631Z,19.30
2023-05-01T20:10:22.305Z,19.30
2023-05-01T20:12:48.979Z,19.30
2023-05-01T20:15:15.733Z,19.30
2023-05-01T20:17:43.409Z,19.30
2023-05-01T20:20:10.656Z,19.30
2023-05-01T20:22:37.262Z,19.30
2023-05-01T20:25:03.995Z,19.30
2023-05-01T20:27:31.091Z,19.30
2023-05-01T20:29:57.983Z,19.30
2023-05-01T20:32:24.887Z,19.30
2023-05-01T20:34:55.039Z,19.30
2023-05-01T20:37:21.697Z,19.40
2023-05-01T20:39:48.534Z,19.40
2023-05-01T20:42:15.213Z,19.40
2023-05-01T20:44:41.808Z,19.30
2023-05-01T20:47:09.730Z,19.40
2023-05-01T20:49:36.343Z,19.40
2023-05-01T20:52:02.930Z,19.30
2023-05-01T20:54:32.252Z,19.40
2023-05-01T20:56:59.023Z,19.40
2023-05-01T20:59:25.603Z,19.40
2023-05-01T21:01:52.290Z,19.40
2023-05-01T21:04:19.084Z,19.40
2023-05-01T21:06:45.803Z,19.40
2023-05-01T21:09:14.810Z,19.40
2023-05-01T21:11:41.468Z,19.40
2023-05-01T21:14:08.596Z,19.40
2023-05-01T21:16:36.332Z,19.40
2023-05-01T21:19:03.656Z,19.40
2023-05-01T21:21:30.854Z,19.40
2023-05-01T21:23:57.454Z,19.40
2023-05-01T21:26:24.100Z,19.40
2023-05-01T21:28:50.817Z,19.40
2023-05-01T21:31:17.508Z,19.40
2023-05-01T21:33:48.031Z,19.40
2023-05-01T21:36:18.145Z,19.40
2023-05-01T21:38:45.875Z,19.40
2023-05-01T21:41:15.131Z,19.40
2023-05-01T21:43:41.916Z,19.40
2023-05-01T21:46:15.038Z,19.50
2023-05-01T21:48:41.704Z,19.50
2023-05-01T21:51:08.427Z,19.50
2023-05-01T21:53:35.160Z,19.50
2023-05-01T21:56:01.803Z,19.40
2023-05-01T21:58:28.412Z,19.50
2023-05-01T22:00:55.345Z,19.40
2023-05-01T22:03:24.446Z,19.50
2023-05-01T22:05:51.150Z,19.50
2023-05-01T22:08:17.731Z,19.50
2023-05-01T22:10:45.331Z,19.50
2023-05-01T22:13:11.926Z,19.50
2023-05-01T22:15:38.563Z,19.50
2023-05-01T22:18:05.243Z,19.50
2023-05-01T22:20:32.238Z,19.40
2023-05-01T22:22:58.890Z,19.40
2023-05-01T22:25:25.574Z,19.50
2023-05-01T22:27:52.190Z,19.50
2023-05-01T22:30:18.800Z,19.50
2023-05-01T22:32:45.419Z,19.50
2023-05-01T22:35:12.205Z,19.50
2023-05-01T22:37:38.804Z,19.50
2023-05-01T22:40:06.246Z,19.40
2023-05-01T22:42:32.867Z,19.50
2023-05-01T22:44:59.494Z,19.50
2023-05-01T22:47:26.118Z,19.50
2023-05-01T22:49:52.725Z,19.50
2023-05-01T22:52:19.375Z,19.50
2023-05-01T22:54:46.057Z,19.50
2023-05-01T22:57:13.638Z,19.40
2023-05-01T22:59:40.857Z,19.50
2023-05-01T23:02:07.869Z,19.40
2023-05-01T23:04:34.569Z,19.50
2023-05-01T23:07:01.194Z,19.50
2023-05-01T23:09:30.475Z,19.50
2023-05-01T23:11:57.061Z,19.50
2023-05-01T23:14:25.324Z,19.50
2023-05-01T23:16:51.966Z,19.50
2023-05-01T23:19:23.951Z,19.50
2023-05-01T23:22:02.433Z,19.50
2023-05-01T23:24:43.209Z,19.50
2023-05-01T23:27:11.676Z,19.50
2023-05-01T23:29:40.487Z,19.50
2023-05-01T23:32:21.868Z,19.50
2023-05-01T23:34:48.821Z,19.50
2023-05-01T23:37:15.458Z,19.50
2023-05-01T23:39:42.165Z,19.50
2023-05-01T23:42:08.844Z,19.50
2023-05-01T23:44:35.433Z,19.50
2023-05-01T23:47:02.181Z,19.50
2023-05-01T23:49:28.888Z,19.50
2023-05-01T23:51:55.654Z,19.50
2023-05-01T23:54:22.410Z,19.50
2023-05-01T23:56:49.108Z,19.50
2023-05-01T23:59:15.762Z,19.60
